Smit Clyde — CFG7577 — position and weather

sailwx.info

Track history (hours):
 
Tides and Currents Weather Stations Pressure Air Temp Water Temp Dewpoint Dewpoint Depression Visibility Wind Speed Wind Dir Waves Ship Positions

Smit Clyde

Last reported at 2014-Oct-20 07:33 UTC. Time now 2014-Oct-20 08:06 UTC.
Position N 54°18' W 130°21'.

Length 28 m; draft 6 m.

Type: Towing. MMSI: 316011473.

Date/timePositionNaut miles runAvg speedWind from/ knotsBaromVisibWave heightAir tempDewpointWater temp
2014-Oct-20 07:33N 54°18' W 130°21'0 0.0
2014-Oct-20 06:33N 54°18' W 130°21'0 0.0
2014-Oct-20 05:33N 54°18' W 130°21'0 0.0
2014-Oct-20 04:33N 54°18' W 130°21'0 0.0
2014-Oct-19 09:33N 54°18' W 130°21'0 0.0
2014-Oct-19 08:33N 54°18' W 130°21'0 0.0
2014-Oct-19 07:33N 54°18' W 130°21'0 0.0
2014-Oct-19 06:33N 54°18' W 130°21'0 0.0
2014-Oct-19 05:33N 54°18' W 130°21'4 3.8
2014-Oct-19 04:32N 54°14' W 130°21'0 0.1
2014-Oct-19 03:16N 54°14' W 130°20'1 0.5
2014-Oct-19 01:33N 54°13' W 130°21'0 0.3
2014-Oct-19 00:33N 54°13' W 130°21'5 4.6
2014-Oct-18 23:33N 54°18' W 130°21'0 0.0
2014-Oct-18 22:33N 54°18' W 130°21'0 0.0
2014-Oct-18 21:33N 54°18' W 130°21'0 0.0
2014-Oct-18 20:33N 54°18' W 130°21'0 0.0
2014-Oct-18 19:33N 54°18' W 130°21'0 0.0
2014-Oct-18 18:33N 54°18' W 130°21'0 0.0
2014-Oct-18 17:33N 54°18' W 130°21'0 0.0
2014-Oct-16 21:33N 54°18' W 130°21'0 0.0
2014-Oct-16 20:33N 54°18' W 130°21'0 0.0
2014-Oct-16 19:33N 54°18' W 130°21'0 0.0
2014-Oct-16 18:33N 54°18' W 130°21'0 0.0
2014-Oct-16 17:33N 54°18' W 130°21'  
2014-Oct-13 13:33N 54°18' W 130°21'0 0.3
2014-Oct-13 12:33N 54°18' W 130°22'1 0.6
2014-Oct-13 11:33N 54°17' W 130°22'1 0.7
2014-Oct-13 10:33N 54°18' W 130°21'0 0.0
2014-Oct-13 09:33N 54°18' W 130°21'0 0.0
2014-Oct-13 08:33N 54°18' W 130°21'0 0.0
2014-Oct-13 07:33N 54°18' W 130°21'0 0.0
2014-Oct-13 06:33N 54°18' W 130°21'0 0.0
2014-Oct-13 05:33N 54°18' W 130°21'0 0.0
2014-Oct-13 04:33N 54°18' W 130°21'0 0.0
2014-Oct-13 03:33N 54°18' W 130°21'0 0.0
2014-Oct-13 02:33N 54°18' W 130°21'0 0.0
2014-Oct-13 01:33N 54°18' W 130°21'0 0.0
2014-Oct-13 00:33N 54°18' W 130°21'0 0.0
2014-Oct-12 23:33N 54°18' W 130°21'0 0.0
2014-Oct-12 22:33N 54°18' W 130°21'0 0.0
2014-Oct-12 21:33N 54°18' W 130°21'0 0.0
2014-Oct-12 20:33N 54°18' W 130°21'0 0.0
2014-Oct-12 19:33N 54°18' W 130°21'0 0.0
2014-Oct-12 18:33N 54°18' W 130°21'0 0.0
2014-Oct-12 17:33N 54°18' W 130°21'0 0.0
2014-Oct-12 16:33N 54°18' W 130°21'0 0.0
2014-Oct-12 15:33N 54°18' W 130°21'0 0.0
2014-Oct-12 14:33N 54°18' W 130°21'0 0.0
2014-Oct-12 13:33N 54°18' W 130°21'0 0.0
2014-Oct-12 12:33N 54°18' W 130°21'0 0.0
2014-Oct-12 11:33N 54°18' W 130°21'0 0.0
2014-Oct-12 10:33N 54°18' W 130°21'0 0.0
2014-Oct-12 09:33N 54°18' W 130°21'0 0.0
2014-Oct-12 08:33N 54°18' W 130°21'0 0.0
2014-Oct-12 07:33N 54°18' W 130°21'0 0.0
2014-Oct-12 06:33N 54°18' W 130°21'0 0.0
2014-Oct-12 05:33N 54°18' W 130°21'0 0.0
2014-Oct-12 04:33N 54°18' W 130°21'0 0.0
2014-Oct-12 03:33N 54°18' W 130°21'0 0.0
2014-Oct-12 02:33N 54°18' W 130°21'0 0.0
2014-Oct-12 01:33N 54°18' W 130°21'0 0.0
2014-Oct-12 00:33N 54°18' W 130°21'0 0.0
2014-Oct-11 23:33N 54°18' W 130°21'0 0.0
2014-Oct-11 22:33N 54°18' W 130°21'0 0.0
2014-Oct-11 21:33N 54°18' W 130°21'0 0.0
2014-Oct-11 20:33N 54°18' W 130°21'0 0.0
2014-Oct-11 19:33N 54°18' W 130°21'0 0.0
2014-Oct-11 18:33N 54°18' W 130°21'0 0.0
2014-Oct-11 17:33N 54°18' W 130°21'0 0.0
2014-Oct-11 16:33N 54°18' W 130°21'0 0.0
2014-Oct-11 15:33N 54°18' W 130°21'0 0.0
2014-Oct-11 14:33N 54°18' W 130°21'0 0.0
2014-Oct-11 13:33N 54°18' W 130°21'0 0.0
2014-Oct-11 12:33N 54°18' W 130°21'0 0.0
2014-Oct-11 11:33N 54°18' W 130°21'0 0.0
2014-Oct-11 10:33N 54°18' W 130°21'0 0.0
2014-Oct-11 09:33N 54°18' W 130°21'0 0.0
2014-Oct-11 08:33N 54°18' W 130°21'0 0.0
2014-Oct-11 07:33N 54°18' W 130°21'0 0.0
2014-Oct-11 06:33N 54°18' W 130°21'0 0.0
2014-Oct-11 05:33N 54°18' W 130°21'0 0.0
2014-Oct-11 04:33N 54°18' W 130°21'0 0.0
2014-Oct-11 03:33N 54°18' W 130°21'0 0.0
2014-Oct-11 02:33N 54°18' W 130°21'0 0.0
2014-Oct-11 01:33N 54°18' W 130°21'4 3.2
2014-Oct-11 00:21N 54°14' W 130°20'1 1.1
2014-Oct-10 23:32N 54°13' W 130°22'1 1.3
2014-Oct-10 22:29N 54°14' W 130°21'3 3.6
2014-Oct-10 21:33N 54°18' W 130°21'0 0.0
2014-Oct-10 20:33N 54°18' W 130°21'0 0.0
2014-Oct-10 19:33N 54°18' W 130°21'0 0.0
2014-Oct-10 18:33N 54°18' W 130°21'0 0.0
2014-Oct-10 17:33N 54°18' W 130°21'0 0.0
2014-Oct-10 16:33N 54°18' W 130°21'0 0.0
2014-Oct-10 15:33N 54°18' W 130°21'0 0.0
2014-Oct-10 14:33N 54°18' W 130°21'0 0.0
2014-Oct-10 13:33N 54°18' W 130°21'0 0.0
2014-Oct-10 12:33N 54°18' W 130°21'0 0.0
2014-Oct-10 11:33N 54°18' W 130°21'0 0.0
2014-Oct-10 10:33N 54°18' W 130°21'0 0.0
2014-Oct-10 09:33N 54°18' W 130°21'0 0.0
2014-Oct-10 08:33N 54°18' W 130°21'  
Track history (hours):
 
Tides and Currents Weather Stations Pressure Air Temp Water Temp Dewpoint Dewpoint Depression Visibility Wind Speed Wind Dir Waves Ship Positions

Smit Clyde

Last reported at 2014-Oct-20 07:33 UTC. Time now 2014-Oct-20 08:06 UTC.
Position N 54°18' W 130°21'.

Length 28 m; draft 6 m.

Type: Towing. MMSI: 316011473.

Date/timePositionNaut miles runAvg speedWind from/ knotsBaromVisibWave heightAir tempDewpointWater temp
2014-Oct-20 07:33N 54°18' W 130°21'0 0.0
2014-Oct-20 06:33N 54°18' W 130°21'0 0.0
2014-Oct-20 05:33N 54°18' W 130°21'0 0.0
2014-Oct-20 04:33N 54°18' W 130°21'0 0.0
2014-Oct-19 09:33N 54°18' W 130°21'0 0.0
2014-Oct-19 08:33N 54°18' W 130°21'0 0.0
2014-Oct-19 07:33N 54°18' W 130°21'0 0.0
2014-Oct-19 06:33N 54°18' W 130°21'0 0.0
2014-Oct-19 05:33N 54°18' W 130°21'4 3.8
2014-Oct-19 04:32N 54°14' W 130°21'0 0.1
2014-Oct-19 03:16N 54°14' W 130°20'1 0.5
2014-Oct-19 01:33N 54°13' W 130°21'0 0.3
2014-Oct-19 00:33N 54°13' W 130°21'5 4.6
2014-Oct-18 23:33N 54°18' W 130°21'0 0.0
2014-Oct-18 22:33N 54°18' W 130°21'0 0.0
2014-Oct-18 21:33N 54°18' W 130°21'0 0.0
2014-Oct-18 20:33N 54°18' W 130°21'0 0.0
2014-Oct-18 19:33N 54°18' W 130°21'0 0.0
2014-Oct-18 18:33N 54°18' W 130°21'0 0.0
2014-Oct-18 17:33N 54°18' W 130°21'0 0.0
2014-Oct-16 21:33N 54°18' W 130°21'0 0.0
2014-Oct-16 20:33N 54°18' W 130°21'0 0.0
2014-Oct-16 19:33N 54°18' W 130°21'0 0.0
2014-Oct-16 18:33N 54°18' W 130°21'0 0.0
2014-Oct-16 17:33N 54°18' W 130°21'  
2014-Oct-13 13:33N 54°18' W 130°21'0 0.3
2014-Oct-13 12:33N 54°18' W 130°22'1 0.6
2014-Oct-13 11:33N 54°17' W 130°22'1 0.7
2014-Oct-13 10:33N 54°18' W 130°21'0 0.0
2014-Oct-13 09:33N 54°18' W 130°21'0 0.0
2014-Oct-13 08:33N 54°18' W 130°21'0 0.0
2014-Oct-13 07:33N 54°18' W 130°21'0 0.0
2014-Oct-13 06:33N 54°18' W 130°21'0 0.0
2014-Oct-13 05:33N 54°18' W 130°21'0 0.0
2014-Oct-13 04:33N 54°18' W 130°21'0 0.0
2014-Oct-13 03:33N 54°18' W 130°21'0 0.0
2014-Oct-13 02:33N 54°18' W 130°21'0 0.0
2014-Oct-13 01:33N 54°18' W 130°21'0 0.0
2014-Oct-13 00:33N 54°18' W 130°21'0 0.0
2014-Oct-12 23:33N 54°18' W 130°21'0 0.0
2014-Oct-12 22:33N 54°18' W 130°21'0 0.0
2014-Oct-12 21:33N 54°18' W 130°21'0 0.0
2014-Oct-12 20:33N 54°18' W 130°21'0 0.0
2014-Oct-12 19:33N 54°18' W 130°21'0 0.0
2014-Oct-12 18:33N 54°18' W 130°21'0 0.0
2014-Oct-12 17:33N 54°18' W 130°21'0 0.0
2014-Oct-12 16:33N 54°18' W 130°21'0 0.0
2014-Oct-12 15:33N 54°18' W 130°21'0 0.0
2014-Oct-12 14:33N 54°18' W 130°21'0 0.0
2014-Oct-12 13:33N 54°18' W 130°21'0 0.0
2014-Oct-12 12:33N 54°18' W 130°21'0 0.0
2014-Oct-12 11:33N 54°18' W 130°21'0 0.0
2014-Oct-12 10:33N 54°18' W 130°21'0 0.0
2014-Oct-12 09:33N 54°18' W 130°21'0 0.0
2014-Oct-12 08:33N 54°18' W 130°21'0 0.0
2014-Oct-12 07:33N 54°18' W 130°21'0 0.0
2014-Oct-12 06:33N 54°18' W 130°21'0 0.0
2014-Oct-12 05:33N 54°18' W 130°21'0 0.0
2014-Oct-12 04:33N 54°18' W 130°21'0 0.0
2014-Oct-12 03:33N 54°18' W 130°21'0 0.0
2014-Oct-12 02:33N 54°18' W 130°21'0 0.0
2014-Oct-12 01:33N 54°18' W 130°21'0 0.0
2014-Oct-12 00:33N 54°18' W 130°21'0 0.0
2014-Oct-11 23:33N 54°18' W 130°21'0 0.0
2014-Oct-11 22:33N 54°18' W 130°21'0 0.0
2014-Oct-11 21:33N 54°18' W 130°21'0 0.0
2014-Oct-11 20:33N 54°18' W 130°21'0 0.0
2014-Oct-11 19:33N 54°18' W 130°21'0 0.0
2014-Oct-11 18:33N 54°18' W 130°21'0 0.0
2014-Oct-11 17:33N 54°18' W 130°21'0 0.0
2014-Oct-11 16:33N 54°18' W 130°21'0 0.0
2014-Oct-11 15:33N 54°18' W 130°21'0 0.0
2014-Oct-11 14:33N 54°18' W 130°21'0 0.0
2014-Oct-11 13:33N 54°18' W 130°21'0 0.0
2014-Oct-11 12:33N 54°18' W 130°21'0 0.0
2014-Oct-11 11:33N 54°18' W 130°21'0 0.0
2014-Oct-11 10:33N 54°18' W 130°21'0 0.0
2014-Oct-11 09:33N 54°18' W 130°21'0 0.0
2014-Oct-11 08:33N 54°18' W 130°21'0 0.0
2014-Oct-11 07:33N 54°18' W 130°21'0 0.0
2014-Oct-11 06:33N 54°18' W 130°21'0 0.0
2014-Oct-11 05:33N 54°18' W 130°21'0 0.0
2014-Oct-11 04:33N 54°18' W 130°21'0 0.0
2014-Oct-11 03:33N 54°18' W 130°21'0 0.0
2014-Oct-11 02:33N 54°18' W 130°21'0 0.0
2014-Oct-11 01:33N 54°18' W 130°21'4 3.2
2014-Oct-11 00:21N 54°14' W 130°20'1 1.1
2014-Oct-10 23:32N 54°13' W 130°22'1 1.3
2014-Oct-10 22:29N 54°14' W 130°21'3 3.6
2014-Oct-10 21:33N 54°18' W 130°21'0 0.0
2014-Oct-10 20:33N 54°18' W 130°21'0 0.0
2014-Oct-10 19:33N 54°18' W 130°21'0 0.0
2014-Oct-10 18:33N 54°18' W 130°21'0 0.0
2014-Oct-10 17:33N 54°18' W 130°21'0 0.0
2014-Oct-10 16:33N 54°18' W 130°21'0 0.0
2014-Oct-10 15:33N 54°18' W 130°21'0 0.0
2014-Oct-10 14:33N 54°18' W 130°21'0 0.0
2014-Oct-10 13:33N 54°18' W 130°21'0 0.0
2014-Oct-10 12:33N 54°18' W 130°21'0 0.0
2014-Oct-10 11:33N 54°18' W 130°21'0 0.0
2014-Oct-10 10:33N 54°18' W 130°21'0 0.0
2014-Oct-10 09:33N 54°18' W 130°21'0 0.0
2014-Oct-10 08:33N 54°18' W 130°21'  

Dump ship's entire track history